createdAt,value
2018-01-02T00:00:12.703Z,981.78
2018-01-02T00:01:12.690Z,981.84
2018-01-02T00:02:12.676Z,981.84
2018-01-02T00:03:12.670Z,981.98
2018-01-02T00:04:12.660Z,982.00
2018-01-02T00:05:12.642Z,982.06
2018-01-02T00:06:12.632Z,982.05
2018-01-02T00:07:12.619Z,982.02
2018-01-02T00:08:12.606Z,982.06
2018-01-02T00:09:12.594Z,982.07
2018-01-02T00:10:12.584Z,982.10
2018-01-02T00:11:12.572Z,982.08
2018-01-02T00:12:12.558Z,982.14
2018-01-02T00:13:12.549Z,982.25
2018-01-02T00:14:12.539Z,982.18
2018-01-02T00:15:12.523Z,982.26
2018-01-02T00:16:12.513Z,982.21
2018-01-02T00:17:12.507Z,982.34
2018-01-02T00:18:12.488Z,982.32
2018-01-02T00:19:12.475Z,982.38
2018-01-02T00:20:12.465Z,982.37
2018-01-02T00:21:12.455Z,982.45
2018-01-02T00:22:12.440Z,982.51
2018-01-02T00:23:12.443Z,982.51
2018-01-02T00:24:12.417Z,982.47
2018-01-02T00:25:12.411Z,982.54
2018-01-02T00:26:12.395Z,982.53
2018-01-02T00:27:12.384Z,982.50
2018-01-02T00:28:12.370Z,982.58
2018-01-02T00:29:12.369Z,982.56
2018-01-02T00:30:12.346Z,982.62
2018-01-02T00:31:12.333Z,982.67
2018-01-02T00:32:12.320Z,982.58
2018-01-02T00:33:12.317Z,982.59
2018-01-02T00:34:12.304Z,982.74
2018-01-02T00:35:12.285Z,982.77
2018-01-02T00:36:12.275Z,982.71
2018-01-02T00:37:12.263Z,982.80
2018-01-02T00:38:12.253Z,982.82
2018-01-02T00:39:12.240Z,982.80
2018-01-02T00:40:12.233Z,982.87
2018-01-02T00:41:12.221Z,982.83
2018-01-02T00:42:12.202Z,982.96
2018-01-02T00:43:12.193Z,982.98
2018-01-02T00:44:12.180Z,983.00
2018-01-02T00:45:12.164Z,983.01
2018-01-02T00:46:12.151Z,983.04
2018-01-02T00:47:12.143Z,983.03
2018-01-02T00:48:12.130Z,983.08
2018-01-02T00:49:12.117Z,983.11
2018-01-02T00:50:12.104Z,983.16
2018-01-02T00:51:12.095Z,983.22
2018-01-02T00:52:12.082Z,983.15
2018-01-02T00:53:12.076Z,983.27
2018-01-02T00:54:12.060Z,983.31
2018-01-02T00:55:12.047Z,983.26
2018-01-02T00:56:12.034Z,983.20
2018-01-02T00:57:12.025Z,983.34
2018-01-02T00:58:12.012Z,983.37
2018-01-02T00:59:12.005Z,983.34
2018-01-02T01:00:11.986Z,983.47
2018-01-02T01:01:11.983Z,983.42
2018-01-02T01:02:11.961Z,983.44
2018-01-02T01:03:11.951Z,983.45
2018-01-02T01:04:11.945Z,983.53
2018-01-02T01:05:11.926Z,983.58
2018-01-02T01:06:11.912Z,983.60
2018-01-02T01:07:11.900Z,983.63
2018-01-02T01:08:11.890Z,983.59
2018-01-02T01:09:11.877Z,983.73
2018-01-02T01:10:11.871Z,983.61
2018-01-02T01:11:11.852Z,983.70
2018-01-02T01:12:11.842Z,983.76
2018-01-02T01:13:11.836Z,983.72
2018-01-02T01:14:11.826Z,983.83
2018-01-02T01:15:11.807Z,983.78
2018-01-02T01:16:11.791Z,983.78
2018-01-02T01:17:11.785Z,983.70
2018-01-02T01:18:11.766Z,983.80
2018-01-02T01:19:11.756Z,983.92
2018-01-02T01:20:11.743Z,983.85
2018-01-02T01:21:11.734Z,983.89
2018-01-02T01:22:11.718Z,983.93
2018-01-02T01:23:11.715Z,983.91
2018-01-02T01:24:11.696Z,983.98
2018-01-02T01:25:11.682Z,984.01
2018-01-02T01:26:11.670Z,984.02
2018-01-02T01:27:11.667Z,984.08
2018-01-02T01:28:11.647Z,984.07
2018-01-02T01:29:11.635Z,984.18
2018-01-02T01:30:11.622Z,984.16
2018-01-02T01:31:11.612Z,984.18
2018-01-02T01:32:11.596Z,984.16
2018-01-02T01:33:11.586Z,984.19
2018-01-02T01:34:11.577Z,984.17
2018-01-02T01:35:11.558Z,984.20
2018-01-02T01:36:11.552Z,984.17
2018-01-02T01:37:11.543Z,984.20
2018-01-02T01:38:11.524Z,984.25
2018-01-02T01:39:11.511Z,984.25
2018-01-02T01:40:11.504Z,984.30
2018-01-02T01:41:11.492Z,984.34
2018-01-02T01:42:11.472Z,984.36
2018-01-02T01:43:11.463Z,984.38
2018-01-02T01:44:11.450Z,984.41
2018-01-02T01:45:11.443Z,984.40
2018-01-02T01:46:11.428Z,984.44
2018-01-02T01:47:11.421Z,984.38
2018-01-02T01:48:11.402Z,984.39
2018-01-02T01:49:11.386Z,984.44
2018-01-02T01:50:11.379Z,984.41
2018-01-02T01:51:11.363Z,984.47
2018-01-02T01:52:11.351Z,984.45
2018-01-02T01:53:11.343Z,984.50
2018-01-02T01:54:11.326Z,984.51
2018-01-02T01:55:11.320Z,984.55
2018-01-02T01:56:11.301Z,984.55
2018-01-02T01:57:11.291Z,984.52
2018-01-02T01:58:11.279Z,984.51
2018-01-02T01:59:11.272Z,984.61
2018-01-02T02:00:11.252Z,984.56
2018-01-02T02:01:11.240Z,984.56
2018-01-02T02:02:11.227Z,984.62
2018-01-02T02:03:11.216Z,984.62
2018-01-02T02:04:11.208Z,984.59
2018-01-02T02:05:11.192Z,984.64
2018-01-02T02:06:11.182Z,984.69
2018-01-02T02:07:11.163Z,984.71
2018-01-02T02:08:11.158Z,984.74
2018-01-02T02:09:11.142Z,984.72
2018-01-02T02:10:11.133Z,984.78
2018-01-02T02:11:11.120Z,984.75
2018-01-02T02:12:11.110Z,984.73
2018-01-02T02:13:11.098Z,984.73
2018-01-02T02:14:11.079Z,984.82
2018-01-02T02:15:11.066Z,984.79
2018-01-02T02:16:11.053Z,984.73
2018-01-02T02:17:11.040Z,984.80
2018-01-02T02:18:11.027Z,984.79
2018-01-02T02:19:11.015Z,984.80
2018-01-02T02:20:11.011Z,984.81
2018-01-02T02:21:10.995Z,984.86
2018-01-02T02:22:10.982Z,984.86
2018-01-02T02:23:10.973Z,984.86
2018-01-02T02:24:10.953Z,984.91
2018-01-02T02:25:10.941Z,984.86
2018-01-02T02:26:10.935Z,984.98
2018-01-02T02:27:10.916Z,984.91
2018-01-02T02:28:10.904Z,984.99
2018-01-02T02:29:10.893Z,985.03
2018-01-02T02:30:10.878Z,985.01
2018-01-02T02:31:10.866Z,985.08
2018-01-02T02:32:10.852Z,985.09
2018-01-02T02:33:10.843Z,985.16
2018-01-02T02:34:10.830Z,985.23
2018-01-02T02:35:10.824Z,985.21
2018-01-02T02:36:10.805Z,985.23
2018-01-02T02:37:10.793Z,985.18
2018-01-02T02:38:10.781Z,985.21
2018-01-02T02:39:10.766Z,985.24
2018-01-02T02:40:10.753Z,985.25
2018-01-02T02:41:10.740Z,985.27
2018-01-02T02:42:10.727Z,985.29
2018-01-02T02:43:10.717Z,985.33
2018-01-02T02:44:10.709Z,985.27
2018-01-02T02:45:10.691Z,985.28
2018-01-02T02:46:10.682Z,985.33
2018-01-02T02:47:10.666Z,985.33
2018-01-02T02:48:10.653Z,985.30
2018-01-02T02:49:10.641Z,985.34
2018-01-02T02:50:10.647Z,985.38
2018-01-02T02:51:10.615Z,985.36
2018-01-02T02:52:10.600Z,985.41
2018-01-02T02:53:10.597Z,985.39
2018-01-02T02:54:10.593Z,985.39
2018-01-02T02:55:10.570Z,985.39
2018-01-02T02:56:10.558Z,985.38
2018-01-02T02:57:10.546Z,985.42
2018-01-02T02:58:10.529Z,985.37
2018-01-02T02:59:10.521Z,985.42
2018-01-02T03:00:10.502Z,985.44
2018-01-02T03:01:10.488Z,985.45
2018-01-02T03:02:10.476Z,985.48
2018-01-02T03:03:10.463Z,985.43
2018-01-02T03:04:10.457Z,985.40
2018-01-02T03:05:10.441Z,985.41
2018-01-02T03:06:10.424Z,985.45
2018-01-02T03:07:10.412Z,985.53
2018-01-02T03:08:10.402Z,985.45
2018-01-02T03:09:10.396Z,985.50
2018-01-02T03:10:10.374Z,985.43
2018-01-02T03:11:10.361Z,985.55
2018-01-02T03:12:10.351Z,985.45
2018-01-02T03:13:10.338Z,985.45
2018-01-02T03:14:10.328Z,985.58
2018-01-02T03:15:10.312Z,985.54
2018-01-02T03:16:10.300Z,985.54
2018-01-02T03:17:10.290Z,985.62
2018-01-02T03:18:10.274Z,985.50
2018-01-02T03:19:10.261Z,985.57
2018-01-02T03:20:10.248Z,985.61
2018-01-02T03:21:10.238Z,985.54
2018-01-02T03:22:10.229Z,985.58
2018-01-02T03:23:10.210Z,985.56
2018-01-02T03:24:10.203Z,985.55
2018-01-02T03:25:10.210Z,985.60
2018-01-02T03:26:10.173Z,985.61
2018-01-02T03:27:10.159Z,985.54
2018-01-02T03:28:10.156Z,985.61
2018-01-02T03:29:10.142Z,985.62
2018-01-02T03:30:10.121Z,985.67
2018-01-02T03:31:10.118Z,985.63
2018-01-02T03:32:10.095Z,985.70
2018-01-02T03:33:10.088Z,985.71
2018-01-02T03:34:10.069Z,985.70
2018-01-02T03:35:10.059Z,985.71
2018-01-02T03:36:10.051Z,985.69
2018-01-02T03:37:10.031Z,985.68
2018-01-02T03:38:10.021Z,985.69
2018-01-02T03:39:10.012Z,985.67
2018-01-02T03:40:09.992Z,985.72
2018-01-02T03:41:09.983Z,985.69
2018-01-02T03:42:09.970Z,985.66
2018-01-02T03:43:09.954Z,985.73
2018-01-02T03:44:09.940Z,985.71
2018-01-02T03:45:09.934Z,985.69
2018-01-02T03:46:09.915Z,985.70
2018-01-02T03:47:09.902Z,985.74
2018-01-02T03:48:09.893Z,985.76
2018-01-02T03:49:09.879Z,985.81
2018-01-02T03:50:09.864Z,985.79
2018-01-02T03:51:09.851Z,985.78
2018-01-02T03:52:09.838Z,985.76
2018-01-02T03:53:09.828Z,985.85
2018-01-02T03:54:09.816Z,985.85
2018-01-02T03:55:09.809Z,985.88
2018-01-02T03:56:09.787Z,985.93
2018-01-02T03:57:09.780Z,985.86
2018-01-02T03:58:09.767Z,985.85
2018-01-02T03:59:09.749Z,985.86
2018-01-02T04:00:09.743Z,985.86
2018-01-02T04:01:09.724Z,985.81
2018-01-02T04:02:09.718Z,985.79
2018-01-02T04:03:09.701Z,985.86
2018-01-02T04:04:09.689Z,985.90
2018-01-02T04:05:09.673Z,985.85
2018-01-02T04:06:09.661Z,985.85
2018-01-02T04:07:09.654Z,985.94
2018-01-02T04:08:09.635Z,985.90
2018-01-02T04:09:09.618Z,985.96
2018-01-02T04:10:09.616Z,985.92
2018-01-02T04:11:09.596Z,985.90
2018-01-02T04:12:09.584Z,986.00
2018-01-02T04:13:09.571Z,985.95
2018-01-02T04:14:09.561Z,985.94
2018-01-02T04:15:09.549Z,985.92
2018-01-02T04:16:09.533Z,985.98
2018-01-02T04:17:09.519Z,985.94
2018-01-02T04:18:09.507Z,985.98
2018-01-02T04:19:09.494Z,986.11
2018-01-02T04:20:09.478Z,986.10
2018-01-02T04:21:09.475Z,986.04
2018-01-02T04:22:09.453Z,986.05
2018-01-02T04:23:09.447Z,986.07
2018-01-02T04:24:09.430Z,986.10
2018-01-02T04:25:09.414Z,986.10
2018-01-02T04:26:09.408Z,986.11
2018-01-02T04:27:09.389Z,986.13
2018-01-02T04:28:09.376Z,986.16
2018-01-02T04:29:09.363Z,986.14
2018-01-02T04:30:09.350Z,986.16
2018-01-02T04:31:09.338Z,986.21
2018-01-02T04:32:09.331Z,986.10
2018-01-02T04:33:09.315Z,986.21
2018-01-02T04:34:09.306Z,986.21
2018-01-02T04:35:09.287Z,986.25
2018-01-02T04:36:09.274Z,986.27
2018-01-02T04:37:09.266Z,986.27
2018-01-02T04:38:09.248Z,986.26
2018-01-02T04:39:09.235Z,986.28
2018-01-02T04:40:09.226Z,986.30
2018-01-02T04:41:09.210Z,986.32
2018-01-02T04:42:09.197Z,986.33
2018-01-02T04:43:09.187Z,986.32
2018-01-02T04:44:09.172Z,986.33
2018-01-02T04:45:09.165Z,986.37
2018-01-02T04:46:09.153Z,986.38
2018-01-02T04:47:09.134Z,986.39
2018-01-02T04:48:09.130Z,986.41
2018-01-02T04:49:09.116Z,986.47
2018-01-02T04:50:09.105Z,986.47
2018-01-02T04:51:09.086Z,986.47
2018-01-02T04:52:09.073Z,986.46
2018-01-02T04:53:09.064Z,986.50
2018-01-02T04:54:09.054Z,986.51
2018-01-02T04:55:09.038Z,986.56
2018-01-02T04:56:09.029Z,986.55
2018-01-02T04:57:09.012Z,986.58
2018-01-02T04:58:09.003Z,986.61
2018-01-02T04:59:08.994Z,986.62
2018-01-02T05:00:08.984Z,986.66
2018-01-02T05:01:08.977Z,986.66
2018-01-02T05:02:08.948Z,986.69
2018-01-02T05:03:08.937Z,986.71
2018-01-02T05:04:08.930Z,986.74
2018-01-02T05:05:08.917Z,986.73
2018-01-02T05:06:08.908Z,986.85
2018-01-02T05:07:08.888Z,986.77
2018-01-02T05:08:08.882Z,986.75
2018-01-02T05:09:08.866Z,986.79
2018-01-02T05:10:08.850Z,986.81
2018-01-02T05:11:08.840Z,986.77
2018-01-02T05:12:08.835Z,986.77
2018-01-02T05:13:08.815Z,986.86
2018-01-02T05:14:08.805Z,986.93
2018-01-02T05:15:08.796Z,986.90
2018-01-02T05:16:08.783Z,986.90
2018-01-02T05:17:08.770Z,986.88
2018-01-02T05:18:08.757Z,986.89
2018-01-02T05:19:08.743Z,986.89
2018-01-02T05:20:08.730Z,986.92
2018-01-02T05:21:08.724Z,986.95
2018-01-02T05:22:08.704Z,986.92
2018-01-02T05:23:08.695Z,986.88
2018-01-02T05:24:08.682Z,986.90
2018-01-02T05:25:08.676Z,986.90
2018-01-02T05:26:08.656Z,986.94
2018-01-02T05:27:08.647Z,986.98
2018-01-02T05:28:08.641Z,986.93
2018-01-02T05:29:08.622Z,986.96
2018-01-02T05:30:08.609Z,987.00
2018-01-02T05:31:08.603Z,987.00
2018-01-02T05:32:08.593Z,987.00
2018-01-02T05:33:08.580Z,986.94
2018-01-02T05:34:08.561Z,987.01
2018-01-02T05:35:08.561Z,986.96
2018-01-02T05:36:08.540Z,987.00
2018-01-02T05:37:08.526Z,987.02
2018-01-02T05:38:08.517Z,987.05
2018-01-02T05:39:08.504Z,987.02
2018-01-02T05:40:08.491Z,987.07
2018-01-02T05:41:08.482Z,987.06
2018-01-02T05:42:08.469Z,987.09
2018-01-02T05:43:08.460Z,987.12
2018-01-02T05:44:08.449Z,987.05
2018-01-02T05:45:08.434Z,987.07
2018-01-02T05:46:08.421Z,987.05
2018-01-02T05:47:08.411Z,987.09
2018-01-02T05:48:08.399Z,987.10
2018-01-02T05:49:08.388Z,987.13
2018-01-02T05:50:08.376Z,987.25
2018-01-02T05:51:08.363Z,987.15
2018-01-02T05:52:08.354Z,987.16
2018-01-02T05:53:08.340Z,987.17
2018-01-02T05:54:08.328Z,987.19
2018-01-02T05:55:08.317Z,987.22
2018-01-02T05:56:08.302Z,987.21
2018-01-02T05:57:08.299Z,987.21
2018-01-02T05:58:08.279Z,987.26
2018-01-02T05:59:08.267Z,987.29
2018-01-02T06:00:08.260Z,987.30
2018-01-02T06:01:08.244Z,987.32
2018-01-02T06:02:08.232Z,987.38
2018-01-02T06:03:08.222Z,987.31
2018-01-02T06:04:08.209Z,987.32
2018-01-02T06:05:08.202Z,987.32
2018-01-02T06:06:08.187Z,987.38
2018-01-02T06:07:08.181Z,987.39
2018-01-02T06:08:08.167Z,987.40
2018-01-02T06:09:08.148Z,987.36
2018-01-02T06:10:08.147Z,987.37
2018-01-02T06:11:08.134Z,987.39
2018-01-02T06:12:08.115Z,987.39
2018-01-02T06:13:08.111Z,987.43
2018-01-02T06:14:08.099Z,987.40
2018-01-02T06:15:08.080Z,987.48
2018-01-02T06:16:08.070Z,987.43
2018-01-02T06:17:08.057Z,987.45
2018-01-02T06:18:08.050Z,987.49
2018-01-02T06:19:08.044Z,987.50
2018-01-02T06:20:08.025Z,987.52
2018-01-02T06:21:08.013Z,987.57
2018-01-02T06:22:08.000Z,987.61
2018-01-02T06:23:07.990Z,987.54
2018-01-02T06:24:07.978Z,987.53
2018-01-02T06:25:07.968Z,987.60
2018-01-02T06:26:07.955Z,987.56
2018-01-02T06:27:07.942Z,987.65
2018-01-02T06:28:07.935Z,987.62
2018-01-02T06:29:07.920Z,987.67
2018-01-02T06:30:07.913Z,987.68
2018-01-02T06:31:07.900Z,987.76
2018-01-02T06:32:07.884Z,987.77
2018-01-02T06:33:07.875Z,987.71
2018-01-02T06:34:07.862Z,987.74
2018-01-02T06:35:07.856Z,987.74
2018-01-02T06:36:07.840Z,987.76
2018-01-02T06:37:07.827Z,987.79
2018-01-02T06:38:07.814Z,987.77
2018-01-02T06:39:07.804Z,987.80
2018-01-02T06:40:07.792Z,987.81
2018-01-02T06:41:07.782Z,987.84
2018-01-02T06:42:07.769Z,987.88
2018-01-02T06:43:07.759Z,987.89
2018-01-02T06:44:07.753Z,987.93
2018-01-02T06:45:07.734Z,987.89
2018-01-02T06:46:07.730Z,987.91
2018-01-02T06:47:07.711Z,987.90
2018-01-02T06:48:07.698Z,987.90
2018-01-02T06:49:07.689Z,987.94
2018-01-02T06:50:07.676Z,987.95
2018-01-02T06:51:07.671Z,987.93
2018-01-02T06:52:07.654Z,987.93
2018-01-02T06:53:07.641Z,987.99
2018-01-02T06:54:07.637Z,987.99
2018-01-02T06:55:07.621Z,988.03
2018-01-02T06:56:07.606Z,988.01
2018-01-02T06:57:07.596Z,988.01
2018-01-02T06:58:07.583Z,988.08
2018-01-02T06:59:07.574Z,988.06
2018-01-02T07:00:07.561Z,988.10
2018-01-02T07:01:07.558Z,988.06
2018-01-02T07:02:07.538Z,988.13
2018-01-02T07:03:07.525Z,988.16
2018-01-02T07:04:07.516Z,988.17
2018-01-02T07:05:07.503Z,988.17
2018-01-02T07:06:07.495Z,988.19
2018-01-02T07:07:07.480Z,988.24
2018-01-02T07:08:07.467Z,988.25
2018-01-02T07:09:07.458Z,988.30
2018-01-02T07:10:07.455Z,988.25
2018-01-02T07:11:07.439Z,988.32
2018-01-02T07:12:07.423Z,988.37
2018-01-02T07:13:07.410Z,988.29
2018-01-02T07:14:07.397Z,988.36
2018-01-02T07:15:07.388Z,988.40
2018-01-02T07:16:07.381Z,988.41
2018-01-02T07:17:07.368Z,988.40
2018-01-02T07:18:07.349Z,988.40
2018-01-02T07:19:07.348Z,988.46
2018-01-02T07:20:07.328Z,988.45
2018-01-02T07:21:07.318Z,988.46
2018-01-02T07:22:07.309Z,988.50
2018-01-02T07:23:07.293Z,988.50
2018-01-02T07:24:07.283Z,988.53
2018-01-02T07:25:07.271Z,988.61
2018-01-02T07:26:07.264Z,988.62
2018-01-02T07:27:07.248Z,988.68
2018-01-02T07:28:07.239Z,988.71
2018-01-02T07:29:07.233Z,988.70
2018-01-02T07:30:07.219Z,988.72
2018-01-02T07:31:07.216Z,988.71
2018-01-02T07:32:07.197Z,988.73
2018-01-02T07:33:07.181Z,988.77
2018-01-02T07:34:07.165Z,988.84
2018-01-02T07:35:07.162Z,988.82
2018-01-02T07:36:07.143Z,988.79
2018-01-02T07:37:07.134Z,988.84
2018-01-02T07:38:07.130Z,988.89
2018-01-02T07:39:07.111Z,988.80
2018-01-02T07:40:07.098Z,988.88
2018-01-02T07:41:07.086Z,988.93
2018-01-02T07:42:07.082Z,988.95
2018-01-02T07:43:07.063Z,988.95
2018-01-02T07:44:07.054Z,988.87
2018-01-02T07:45:07.044Z,988.99
2018-01-02T07:46:07.028Z,988.94
2018-01-02T07:47:07.018Z,989.01
2018-01-02T07:48:07.016Z,988.98
2018-01-02T07:49:06.996Z,989.00
2018-01-02T07:50:06.983Z,989.04
2018-01-02T07:51:06.977Z,989.07
2018-01-02T07:52:06.961Z,989.12
2018-01-02T07:53:06.954Z,989.16
2018-01-02T07:54:06.939Z,989.16
2018-01-02T07:55:06.926Z,989.17
2018-01-02T07:56:06.919Z,989.21
2018-01-02T07:57:06.910Z,989.19
2018-01-02T07:58:06.897Z,989.26
2018-01-02T07:59:06.881Z,989.29
2018-01-02T08:00:06.868Z,989.32
2018-01-02T08:01:06.859Z,989.33
2018-01-02T08:02:06.849Z,989.37
2018-01-02T08:03:06.840Z,989.36
2018-01-02T08:04:06.823Z,989.44
2018-01-02T08:05:06.814Z,989.40
2018-01-02T08:06:06.801Z,989.40
2018-01-02T08:07:06.794Z,989.45
2018-01-02T08:08:06.785Z,989.50
2018-01-02T08:09:06.772Z,989.58
2018-01-02T08:10:06.761Z,989.56
2018-01-02T08:11:06.744Z,989.58
2018-01-02T08:12:06.735Z,989.60
2018-01-02T08:13:06.722Z,989.64
2018-01-02T08:14:06.709Z,989.70
2018-01-02T08:15:06.703Z,989.67
2018-01-02T08:16:06.687Z,989.70
2018-01-02T08:17:06.677Z,989.74
2018-01-02T08:18:06.668Z,989.72
2018-01-02T08:19:06.655Z,989.80
2018-01-02T08:20:06.642Z,989.76
2018-01-02T08:21:06.636Z,989.82
2018-01-02T08:22:06.626Z,989.81
2018-01-02T08:23:06.610Z,989.86
2018-01-02T08:24:06.600Z,989.84
2018-01-02T08:25:06.650Z,989.91
2018-01-02T08:26:06.581Z,989.87
2018-01-02T08:27:06.572Z,989.92
2018-01-02T08:28:06.552Z,989.92
2018-01-02T08:29:06.544Z,989.96
2018-01-02T08:30:06.531Z,990.01
2018-01-02T08:31:06.518Z,990.07
2018-01-02T08:32:06.509Z,990.10
2018-01-02T08:33:06.499Z,990.12
2018-01-02T08:34:06.486Z,990.16
2018-01-02T08:35:06.477Z,990.20
2018-01-02T08:36:06.467Z,990.27
2018-01-02T08:37:06.461Z,990.28
2018-01-02T08:38:06.442Z,990.33
2018-01-02T08:39:06.429Z,990.36
2018-01-02T08:40:06.422Z,990.45
2018-01-02T08:41:06.413Z,990.48
2018-01-02T08:42:06.400Z,990.46
2018-01-02T08:43:06.387Z,990.50
2018-01-02T08:44:06.378Z,990.49
2018-01-02T08:45:06.365Z,990.48
2018-01-02T08:46:06.358Z,990.60
2018-01-02T08:47:06.347Z,990.60
2018-01-02T08:48:06.338Z,990.59
2018-01-02T08:49:06.318Z,990.65
2018-01-02T08:50:06.309Z,990.67
2018-01-02T08:51:06.314Z,990.74
2018-01-02T08:52:06.293Z,990.77
2018-01-02T08:53:06.274Z,990.74
2018-01-02T08:54:06.262Z,990.77
2018-01-02T08:55:06.251Z,990.78
2018-01-02T08:56:06.238Z,990.83
2018-01-02T08:57:06.229Z,990.82
2018-01-02T08:58:06.216Z,990.80
2018-01-02T08:59:06.216Z,990.89
2018-01-02T09:00:06.194Z,990.94
2018-01-02T09:01:06.187Z,990.95
2018-01-02T09:02:06.178Z,991.02
2018-01-02T09:03:06.165Z,991.02
2018-01-02T09:04:06.149Z,991.00
2018-01-02T09:05:06.137Z,991.05
2018-01-02T09:06:06.128Z,991.03
2018-01-02T09:07:06.115Z,991.07
2018-01-02T09:08:06.105Z,991.04
2018-01-02T09:09:06.099Z,991.07
2018-01-02T09:10:06.082Z,991.07
2018-01-02T09:11:06.070Z,991.06
2018-01-02T09:12:06.060Z,991.12
2018-01-02T09:13:06.051Z,991.16
2018-01-02T09:14:06.038Z,991.23
2018-01-02T09:15:06.032Z,991.20
2018-01-02T09:16:06.016Z,991.27
2018-01-02T09:17:06.006Z,991.27
2018-01-02T09:18:05.995Z,991.29
2018-01-02T09:19:05.984Z,991.35
2018-01-02T09:20:05.977Z,991.40
2018-01-02T09:21:05.968Z,991.42
2018-01-02T09:22:05.948Z,991.44
2018-01-02T09:23:05.938Z,991.46
2018-01-02T09:24:05.925Z,991.46
2018-01-02T09:25:05.916Z,991.51
2018-01-02T09:26:05.903Z,991.48
2018-01-02T09:27:05.899Z,991.55
2018-01-02T09:28:05.880Z,991.52
2018-01-02T09:29:05.877Z,991.59
2018-01-02T09:30:05.858Z,991.55
2018-01-02T09:31:05.849Z,991.56
2018-01-02T09:32:05.836Z,991.59
2018-01-02T09:33:05.826Z,991.66
2018-01-02T09:34:05.813Z,991.60
2018-01-02T09:35:05.809Z,991.66
2018-01-02T09:36:05.794Z,991.68
2018-01-02T09:37:05.790Z,991.74
2018-01-02T09:38:05.858Z,991.71
2018-01-02T09:39:05.765Z,991.69
2018-01-02T09:40:05.752Z,991.71
2018-01-02T09:41:05.744Z,991.74
2018-01-02T09:42:05.726Z,991.78
2018-01-02T09:43:05.712Z,991.79
2018-01-02T09:44:05.703Z,991.77
2018-01-02T09:45:05.706Z,991.86
2018-01-02T09:46:05.680Z,991.82
2018-01-02T09:47:05.671Z,991.79
2018-01-02T09:48:05.665Z,991.85
2018-01-02T09:49:05.649Z,991.83
2018-01-02T09:50:05.639Z,991.85
2018-01-02T09:51:05.626Z,991.86
2018-01-02T09:52:05.620Z,991.82
2018-01-02T09:53:05.605Z,991.85
2018-01-02T09:54:05.592Z,991.86
2018-01-02T09:55:05.582Z,991.87
2018-01-02T09:56:05.572Z,991.88
2018-01-02T09:57:05.559Z,991.90
2018-01-02T09:58:05.555Z,991.89
2018-01-02T09:59:05.543Z,991.91
2018-01-02T10:00:05.527Z,991.90
2018-01-02T10:01:05.514Z,991.89
2018-01-02T10:02:05.511Z,991.91
2018-01-02T10:03:05.498Z,991.95
2018-01-02T10:04:05.487Z,991.92
2018-01-02T10:05:05.466Z,991.93
2018-01-02T10:06:05.460Z,991.93
2018-01-02T10:07:05.447Z,991.95
2018-01-02T10:08:05.438Z,991.95
2018-01-02T10:09:05.428Z,991.96
2018-01-02T10:10:05.416Z,991.96
2018-01-02T10:11:05.408Z,991.94
2018-01-02T10:12:05.393Z,991.95
2018-01-02T10:13:05.389Z,992.00
2018-01-02T10:14:05.404Z,992.00
2018-01-02T10:15:05.359Z,991.99
2018-01-02T10:16:05.351Z,992.00
2018-01-02T10:17:05.338Z,991.97
2018-01-02T10:18:05.328Z,991.98
2018-01-02T10:19:05.316Z,992.04
2018-01-02T10:20:05.306Z,992.09
2018-01-02T10:21:05.296Z,992.06
2018-01-02T10:22:05.286Z,992.04
2018-01-02T10:23:05.274Z,992.04
2018-01-02T10:24:05.268Z,992.07
2018-01-02T10:25:05.258Z,992.04
2018-01-02T10:26:05.245Z,992.02
2018-01-02T10:27:05.229Z,992.02
2018-01-02T10:28:05.220Z,992.02
2018-01-02T10:29:05.214Z,992.06
2018-01-02T10:30:05.194Z,992.08
2018-01-02T10:31:05.185Z,992.07
2018-01-02T10:32:05.174Z,992.11
2018-01-02T10:33:05.165Z,992.10
2018-01-02T10:34:05.158Z,992.21
2018-01-02T10:35:05.142Z,992.20
2018-01-02T10:36:05.129Z,992.22
2018-01-02T10:37:05.120Z,992.20
2018-01-02T10:38:05.107Z,992.26
2018-01-02T10:39:05.100Z,992.29
2018-01-02T10:40:05.091Z,992.29
2018-01-02T10:41:05.081Z,992.26
2018-01-02T10:42:05.072Z,992.33
2018-01-02T10:43:05.052Z,992.39
2018-01-02T10:44:05.043Z,992.39
2018-01-02T10:45:05.034Z,992.38
2018-01-02T10:46:05.027Z,992.39
2018-01-02T10:47:05.017Z,992.41
2018-01-02T10:48:05.001Z,992.42
2018-01-02T10:49:04.995Z,992.41
2018-01-02T10:50:04.985Z,992.42
2018-01-02T10:51:04.966Z,992.35
2018-01-02T10:52:04.957Z,992.34
2018-01-02T10:53:04.946Z,992.34
2018-01-02T10:54:04.933Z,992.38
2018-01-02T10:55:04.929Z,992.34
2018-01-02T10:56:04.920Z,992.32
2018-01-02T10:57:04.901Z,992.34
2018-01-02T10:58:04.891Z,992.33
2018-01-02T10:59:04.883Z,992.32
2018-01-02T11:00:04.869Z,992.35
2018-01-02T11:01:04.859Z,992.36
2018-01-02T11:02:04.846Z,992.40
2018-01-02T11:03:04.840Z,992.39
2018-01-02T11:04:04.833Z,992.39
2018-01-02T11:05:04.814Z,992.40
2018-01-02T11:06:04.804Z,992.40
2018-01-02T11:07:04.801Z,992.39
2018-01-02T11:08:04.783Z,992.37
2018-01-02T11:09:04.784Z,992.45
2018-01-02T11:10:04.767Z,992.40
2018-01-02T11:11:04.756Z,992.44
2018-01-02T11:12:04.741Z,992.41
2018-01-02T11:13:04.728Z,992.41
2018-01-02T11:14:04.715Z,992.38
2018-01-02T11:15:04.713Z,992.39
2018-01-02T11:16:04.696Z,992.43
2018-01-02T11:17:04.693Z,992.41
2018-01-02T11:18:04.677Z,992.41
2018-01-02T11:19:04.661Z,992.45
2018-01-02T11:20:04.651Z,992.42
2018-01-02T11:21:04.648Z,992.44
2018-01-02T11:22:04.629Z,992.47
2018-01-02T11:23:04.619Z,992.44
2018-01-02T11:24:04.610Z,992.48
2018-01-02T11:25:04.606Z,992.43
2018-01-02T11:26:04.587Z,992.51
2018-01-02T11:27:04.581Z,992.44
2018-01-02T11:28:04.575Z,992.45
2018-01-02T11:29:04.558Z,992.42
2018-01-02T11:30:04.556Z,992.40
2018-01-02T11:31:04.537Z,992.37
2018-01-02T11:32:04.530Z,992.38
2018-01-02T11:33:04.527Z,992.38
2018-01-02T11:34:04.511Z,992.36
2018-01-02T11:35:04.505Z,992.32
2018-01-02T11:36:04.495Z,992.37
2018-01-02T11:37:04.488Z,992.38
2018-01-02T11:38:04.472Z,992.34
2018-01-02T11:39:04.463Z,992.44
2018-01-02T11:40:04.456Z,992.44
2018-01-02T11:41:04.450Z,992.39
2018-01-02T11:42:04.434Z,992.38
2018-01-02T11:43:04.424Z,992.41
2018-01-02T11:44:04.421Z,992.44
2018-01-02T11:45:04.413Z,992.42
2018-01-02T11:46:04.392Z,992.44
2018-01-02T11:47:04.385Z,992.46
2018-01-02T11:48:04.373Z,992.46
2018-01-02T11:49:04.367Z,992.53
2018-01-02T11:50:04.361Z,992.46
2018-01-02T11:51:04.342Z,992.45
2018-01-02T11:52:04.333Z,992.51
2018-01-02T11:53:04.322Z,992.51
2018-01-02T11:54:04.320Z,992.56
2018-01-02T11:55:04.323Z,992.53
2018-01-02T11:56:04.297Z,992.58
2018-01-02T11:57:04.281Z,992.59
2018-01-02T11:58:04.269Z,992.57
2018-01-02T11:59:04.285Z,992.59
2018-01-02T12:00:04.256Z,992.59
2018-01-02T12:01:04.246Z,992.64
2018-01-02T12:02:04.226Z,992.66
2018-01-02T12:03:04.223Z,992.66
2018-01-02T12:04:04.207Z,992.70
2018-01-02T12:05:04.197Z,992.71
2018-01-02T12:06:04.185Z,992.72
2018-01-02T12:07:04.182Z,992.76
2018-01-02T12:08:04.172Z,992.76
2018-01-02T12:09:04.153Z,992.82
2018-01-02T12:10:04.145Z,992.80
2018-01-02T12:11:04.132Z,992.86
2018-01-02T12:12:04.122Z,992.91
2018-01-02T12:13:04.114Z,992.91
2018-01-02T12:14:04.100Z,992.91
2018-01-02T12:15:04.090Z,992.89
2018-01-02T12:16:04.087Z,992.86
2018-01-02T12:17:04.071Z,992.85
2018-01-02T12:18:04.059Z,992.86
2018-01-02T12:19:04.055Z,992.86
2018-01-02T12:20:04.042Z,992.87
2018-01-02T12:21:04.027Z,992.87
2018-01-02T12:22:04.023Z,992.91
2018-01-02T12:23:04.007Z,992.90
2018-01-02T12:24:04.001Z,992.92
2018-01-02T12:25:03.985Z,992.85
2018-01-02T12:26:03.972Z,992.92
2018-01-02T12:27:03.965Z,992.87
2018-01-02T12:28:03.959Z,992.88